Time,TemperatureF,DewpointF,PressureIn,WindDirection,WindDirectionDegrees,WindSpeedMPH,WindSpeedGustMPH,Humidity,HourlyPrecipIn,Conditions,Clouds,dailyrainin,SoftwareType,DateUTC
2013-03-12 00:10:00,37.5,31.9,30.12,WNW,289,0.0,0.0,80,0.00,,,0.00,Wunderground v.1.15,2013-03-12 05:10:00,
2013-03-12 00:20:00,37.2,32.2,30.12,WNW,284,1.0,1.0,82,0.00,,,0.00,Wunderground v.1.15,2013-03-12 05:20:00,
2013-03-12 00:30:00,37.4,31.8,30.12,NW,304,1.0,1.0,80,0.00,,,0.00,Wunderground v.1.15,2013-03-12 05:30:00,
2013-03-12 00:40:00,37.3,31.7,30.12,NW,304,0.0,0.0,80,0.00,,,0.00,Wunderground v.1.15,2013-03-12 05:40:00,
2013-03-12 00:50:00,36.8,31.5,30.11,NW,304,0.0,0.0,81,0.00,,,0.00,Wunderground v.1.15,2013-03-12 05:50:00,
2013-03-12 01:00:00,36.6,31.3,30.11,NW,307,0.0,0.0,81,0.00,,,0.00,Wunderground v.1.15,2013-03-12 06:00:00,
2013-03-12 01:10:00,36.1,31.1,30.13,WNW,300,0.0,0.0,82,0.00,,,0.00,Wunderground v.1.15,2013-03-12 06:10:00,
2013-03-12 01:20:00,35.5,30.8,30.12,WNW,300,0.0,0.0,83,0.00,,,0.00,Wunderground v.1.15,2013-03-12 06:20:00,
2013-03-12 01:30:00,35.2,30.6,30.12,WSW,252,0.0,0.0,83,0.00,,,0.00,Wunderground v.1.15,2013-03-12 06:30:00,
2013-03-12 01:40:00,34.6,30.3,30.14,West,268,0.0,0.0,84,0.00,,,0.00,Wunderground v.1.15,2013-03-12 06:40:00,
2013-03-12 01:50:00,34.1,30.4,30.14,West,276,0.0,0.0,86,0.00,,,0.00,Wunderground v.1.15,2013-03-12 06:50:00,
2013-03-12 02:00:00,33.7,30.2,30.14,West,276,0.0,0.0,87,0.00,,,0.00,Wunderground v.1.15,2013-03-12 07:00:00,
2013-03-12 02:10:00,33.5,30.0,30.14,West,277,0.0,0.0,87,0.00,,,0.00,Wunderground v.1.15,2013-03-12 07:10:00,
2013-03-12 02:20:00,33.4,29.9,30.14,West,276,0.0,0.0,87,0.00,,,0.00,Wunderground v.1.15,2013-03-12 07:20:00,
2013-03-12 02:30:00,33.9,30.4,30.15,West,277,0.0,0.0,87,0.00,,,0.00,Wunderground v.1.15,2013-03-12 07:30:00,
2013-03-12 02:40:00,33.2,29.8,30.16,WNW,287,0.0,0.0,87,0.00,,,0.00,Wunderground v.1.15,2013-03-12 07:40:00,
2013-03-12 02:50:00,32.7,29.5,30.16,WNW,291,0.0,0.0,88,0.00,,,0.00,Wunderground v.1.15,2013-03-12 07:50:00,
2013-03-12 03:00:00,31.4,28.3,30.16,WNW,290,0.0,0.0,88,0.00,,,0.00,Wunderground v.1.15,2013-03-12 08:00:00,
2013-03-12 03:10:00,30.6,28.0,30.17,WNW,290,0.0,0.0,90,0.00,,,0.00,Wunderground v.1.15,2013-03-12 08:10:00,
2013-03-12 03:20:00,30.0,27.7,30.17,WNW,291,0.0,0.0,91,0.00,,,0.00,Wunderground v.1.15,2013-03-12 08:20:00,